Cochecton Center, New York
Current Conditions -  °F | °C
As of 5:35 AM on Thursday 27 Nov 2014 (Local Time) from KMSV Reporting Station
Broken Clouds Broken Clouds  
Wind Chill: 21°   Ceiling: 9000
Heat Index: 28°   Visibility: 10mi
Dew Point: 27°   Wind: 7mph
Humidity: 93%   Direction: 300°WNW
Pressure: 29.9"   Gusts: NA
Location:  41.65°N, 74.98°W
Report Text: KMSV 271035Z AUTO 30006KT 10SM FEW055 BKN090 M02/M03 A2990 RMK AO1
Loading
Personal Weather Stations






























Interactive Weather Map New forecast layout! Learn more

10-Day Weather Forecast

Advertisements
Track Severe Weather on mobile